Time;durP1;ratioP1;P1;durP2;ratioP2;P2;SDS_P1;SDS_P2;PMS_P1;PMS_P2;Temp;Humidity;BMP_temperature;BMP_pressure;BME280_temperature;BME280_humidity;BME280_pressure;Samples;Min_cycle;Max_cycle;Signal;HPM_P1;HPM_P2
2021/12/05 00:22:12;;;;;;;14.27;3.92;;;;;;;4.85;76.20;97584.69;2618706;54;20026;-70
2021/12/05 00:24:46;;;;;;;11.73;3.80;;;;;;;4.85;75.84;97597.78;2619198;54;20562;-70
2021/12/05 00:27:19;;;;;;;;;;;;;;;4.82;75.93;97600.00;2619282;54;20038;-70
2021/12/05 00:29:59;;;;;;;8.73;3.10;;;;;;;4.88;75.88;97602.66;2619249;54;19950;-70
2021/12/05 00:32:37;;;;;;;6.65;2.58;;;;;;;4.88;76.04;97596.63;2619434;39;20482;-70
2021/12/05 00:52:16;;;;;;;7.55;2.58;;;;;;;4.76;74.88;97601.53;2617295;54;20557;-70
2021/12/05 00:57:50;;;;;;;10.35;2.45;;;;;;;4.72;74.63;97593.22;2618155;54;20038;-71
2021/12/05 01:00:35;;;;;;;13.15;3.90;;;;;;;4.74;74.55;97594.88;2618201;47;20549;-68
2021/12/05 01:03:24;;;;;;;10.63;2.92;;;;;;;4.68;74.60;97606.88;2618153;51;20134;-68
2021/12/05 01:09:14;;;;;;;13.68;3.42;;;;;;;4.71;74.66;97598.66;2618371;47;20593;-69
2021/12/05 01:12:03;;;;;;;9.15;2.92;;;;;;;4.72;74.63;97608.13;2618709;54;20027;-70
2021/12/05 01:14:38;;;;;;;7.22;2.75;;;;;;;4.71;74.21;97606.50;2618864;31;20498;-70
2021/12/05 01:17:09;;;;;;;6.32;2.13;;;;;;;4.68;74.13;97614.72;2618241;47;20030;-70
2021/12/05 01:19:39;;;;;;;6.30;2.40;;;;;;;4.66;73.95;97603.63;2617903;54;20069;-70
2021/12/05 01:22:14;;;;;;;8.00;2.55;;;;;;;4.68;74.27;97604.25;2618041;54;20048;-70
2021/12/05 01:24:55;;;;;;;10.32;2.85;;;;;;;4.69;74.22;97601.47;2618498;54;20061;-70
2021/12/05 01:27:38;;;;;;;6.53;2.63;;;;;;;4.72;73.95;97605.50;2618177;54;20118;-70
2021/12/05 01:30:17;;;;;;;6.03;2.63;;;;;;;4.74;73.94;97603.53;2617863;47;20037;-69
2021/12/05 01:32:59;;;;;;;5.55;2.03;;;;;;;4.73;73.61;97601.88;2617658;47;20270;-69
2021/12/05 01:35:44;;;;;;;11.23;3.35;;;;;;;4.72;73.43;97602.88;2618234;54;20022;-69
2021/12/05 01:38:24;;;;;;;8.40;2.90;;;;;;;4.73;73.72;97594.03;2617678;54;20030;-70
2021/12/05 01:41:07;;;;;;;11.45;2.17;;;;;;;4.76;73.58;97596.28;2617630;47;20022;-69
2021/12/05 01:57:56;;;;;;;6.22;2.25;;;;;;;4.77;72.91;97603.13;2619554;39;20406;-70
2021/12/05 02:09:12;;;;;;;4.05;1.70;;;;;;;4.77;71.99;97603.13;2618566;54;20034;-71
2021/12/05 02:11:55;;;;;;;8.18;2.30;;;;;;;4.77;72.20;97605.75;2618512;54;20134;-70
2021/12/05 02:31:31;;;;;;;7.22;1.83;;;;;;;4.84;71.70;97577.03;2617206;54;20046;-70
2021/12/05 02:34:12;;;;;;;4.45;1.83;;;;;;;4.84;71.75;97570.00;2617074;54;20043;-71
2021/12/05 02:42:15;;;;;;;5.80;2.05;;;;;;;4.74;72.46;97564.25;2616980;54;20049;-70
2021/12/05 02:44:46;;;;;;;6.03;1.77;;;;;;;4.70;72.16;97561.19;2617078;49;20030;-72
2021/12/05 02:47:19;;;;;;;4.88;1.60;;;;;;;4.71;72.51;97556.78;2617198;54;20542;-70
2021/12/05 02:49:53;;;;;;;2.47;1.45;;;;;;;4.67;72.57;97555.53;2617348;54;20034;-70
2021/12/05 02:52:29;;;;;;;5.53;1.52;;;;;;;4.64;72.66;97556.69;2617053;54;20057;-70
2021/12/05 02:55:07;;;;;;;11.40;2.63;;;;;;;4.64;72.70;97548.84;2616968;54;20061;-70
2021/12/05 02:57:51;;;;;;;4.95;1.83;;;;;;;4.63;72.71;97539.38;2617364;54;20081;-70
2021/12/05 03:00:35;;;;;;;7.68;2.00;;;;;;;4.67;73.01;97538.00;2618257;54;20030;-71
2021/12/05 03:03:18;;;;;;;5.55;1.88;;;;;;;4.64;72.79;97538.38;2617608;54;20040;-70
2021/12/05 03:05:50;;;;;;;5.93;1.75;;;;;;;4.63;72.76;97528.91;2617287;54;20114;-70
2021/12/05 03:08:20;;;;;;;4.55;1.73;;;;;;;4.64;72.86;97525.28;2617412;47;20073;-70
2021/12/05 03:10:55;;;;;;;6.70;1.80;;;;;;;4.63;72.98;97533.31;2617839;39;20418;-70
2021/12/05 03:13:24;;;;;;;6.28;1.73;;;;;;;4.63;72.74;97523.66;2618667;39;20411;-70
2021/12/05 03:15:58;;;;;;;4.07;1.65;;;;;;;4.63;73.08;97515.81;2618266;47;20026;-70
2021/12/05 03:18:28;;;;;;;8.00;1.80;;;;;;;4.64;72.83;97514.81;2617612;48;20049;-70
2021/12/05 03:21:01;;;;;;;5.75;1.63;;;;;;;4.64;72.69;97506.16;2618104;54;20057;-70
2021/12/05 03:23:35;;;;;;;9.05;2.05;;;;;;;4.61;72.85;97502.13;2617627;47;20034;-70
2021/12/05 03:26:10;;;;;;;5.95;1.60;;;;;;;4.64;73.10;97493.88;2618338;54;20038;-70
2021/12/05 03:28:41;;;;;;;4.80;1.50;;;;;;;4.63;72.85;97492.25;2616847;54;20519;-70
2021/12/05 03:31:12;;;;;;;5.07;1.73;;;;;;;4.63;72.70;97489.63;2617555;47;20034;-70
2021/12/05 03:33:42;;;;;;;4.20;1.73;;;;;;;4.64;72.66;97499.09;2620089;54;20035;-70
2021/12/05 03:36:13;;;;;;;5.68;1.63;;;;;;;4.61;73.10;97490.81;2621042;39;20520;-70
2021/12/05 03:38:44;;;;;;;5.25;1.60;;;;;;;4.62;72.72;97490.63;2619228;54;20580;-70
2021/12/05 03:41:20;;;;;;;7.75;1.80;;;;;;;4.60;72.73;97489.19;2618132;54;20034;-70
2021/12/05 03:43:55;;;;;;;5.32;1.60;;;;;;;4.59;72.91;97487.59;2618350;31;20486;-70
2021/12/05 03:46:29;;;;;;;5.55;1.67;;;;;;;4.63;72.98;97481.78;2618988;47;20685;-70
2021/12/05 03:49:03;;;;;;;4.03;1.70;;;;;;;4.66;73.23;97488.47;2619664;54;20030;-70
2021/12/05 03:51:36;;;;;;;7.70;1.95;;;;;;;4.66;73.15;97484.03;2618447;54;20033;-70
2021/12/05 03:54:07;;;;;;;5.38;1.63;;;;;;;4.66;73.15;97493.69;2618451;54;20037;-70
2021/12/05 03:56:40;;;;;;;6.43;1.95;;;;;;;4.67;72.82;97487.47;2618435;54;20029;-70
2021/12/05 03:59:14;;;;;;;4.68;1.92;;;;;;;4.69;72.78;97488.06;2622374;47;20029;-70
2021/12/05 04:01:47;;;;;;;5.68;1.60;;;;;;;4.77;72.58;97489.75;2627155;54;20038;-70
2021/12/05 04:04:19;;;;;;;5.93;2.00;;;;;;;4.74;72.47;97495.38;2627148;54;20073;-71
2021/12/05 04:06:50;;;;;;;5.60;1.80;;;;;;;4.75;73.07;97489.94;2623322;39;20445;-70
2021/12/05 04:09:22;;;;;;;3.95;1.35;;;;;;;4.79;72.62;97491.19;2619579;39;20411;-70
2021/12/05 04:12:02;;;;;;;6.20;1.83;;;;;;;4.80;72.49;97497.25;2620492;54;20022;-70
2021/12/05 04:14:42;;;;;;;5.47;1.83;;;;;;;4.79;72.65;97496.44;2625388;54;20041;-70
2021/12/05 04:17:17;;;;;;;11.88;2.38;;;;;;;4.74;73.06;97498.00;2621387;47;20117;-70
2021/12/05 04:19:47;;;;;;;4.85;1.45;;;;;;;4.76;72.92;97504.66;2621629;54;20045;-70
2021/12/05 04:22:17;;;;;;;5.65;1.90;;;;;;;4.78;73.10;97501.88;2620077;47;20038;-70
2021/12/05 04:24:48;;;;;;;8.85;2.47;;;;;;;4.77;73.12;97495.78;2619476;47;20030;-70
2021/12/05 04:27:21;;;;;;;4.13;1.92;;;;;;;4.75;72.88;97481.28;2619437;54;20042;-70
2021/12/05 04:29:51;;;;;;;8.15;2.28;;;;;;;4.75;72.91;97497.00;2618828;47;20092;-70
2021/12/05 04:32:21;;;;;;;4.93;2.03;;;;;;;4.71;72.80;97488.72;2618645;46;20031;-70
2021/12/05 04:34:50;;;;;;;6.10;2.15;;;;;;;4.70;72.97;97489.72;2618534;54;20029;-70
2021/12/05 04:37:23;;;;;;;5.32;2.20;;;;;;;4.71;73.39;97491.31;2618618;47;20030;-69
2021/12/05 04:39:54;;;;;;;4.75;1.77;;;;;;;4.65;73.01;97500.75;2618515;54;20034;-71
2021/12/05 04:42:27;;;;;;;2.25;1.80;;;;;;;4.63;73.38;97496.69;2618107;47;20030;-71
2021/12/05 04:44:57;;;;;;;7.65;1.85;;;;;;;4.60;73.62;97491.81;2619206;51;20053;-70
2021/12/05 04:47:28;;;;;;;6.25;1.90;;;;;;;4.58;73.57;97502.47;2619640;51;20026;-70
2021/12/05 04:49:58;;;;;;;9.57;2.55;;;;;;;4.54;73.45;97503.03;2619801;54;20037;-70
2021/12/05 04:52:28;;;;;;;5.63;1.60;;;;;;;4.60;73.71;97500.47;2619354;54;20041;-70
2021/12/05 04:54:58;;;;;;;6.55;2.97;;;;;;;4.65;73.69;97510.38;2618741;54;20066;-70
2021/12/05 04:57:30;;;;;;;6.32;2.15;;;;;;;4.66;73.69;97509.41;2618539;54;20042;-71
2021/12/05 05:00:00;;;;;;;5.00;1.80;;;;;;;4.64;73.49;97506.97;2618611;46;20030;-70
2021/12/05 05:02:32;;;;;;;2.42;1.70;;;;;;;4.62;73.92;97502.91;2619623;47;20026;-70
2021/12/05 05:05:02;;;;;;;3.92;1.88;;;;;;;4.60;74.35;97505.72;2622638;54;20090;-71
2021/12/05 05:07:32;;;;;;;6.53;2.90;;;;;;;4.60;73.87;97507.50;2623049;54;20041;-71
2021/12/05 05:10:08;;;;;;;3.30;1.40;;;;;;;4.63;73.57;97505.34;2618893;39;20450;-70
2021/12/05 05:12:40;;;;;;;2.63;1.85;;;;;;;4.66;73.72;97498.94;2618159;54;20029;-70
2021/12/05 05:15:12;;;;;;;7.53;1.88;;;;;;;4.66;73.92;97491.09;2618928;54;20126;-70
2021/12/05 05:17:42;;;;;;;3.88;2.03;;;;;;;4.59;73.47;97495.44;2618869;54;20030;-70
2021/12/05 05:20:21;;;;;;;5.63;1.67;;;;;;;4.54;73.39;97497.81;2619035;54;20038;-70
2021/12/05 05:23:08;;;;;;;6.30;1.70;;;;;;;4.47;73.63;97493.31;2619235;54;20039;-70
2021/12/05 05:39:42;;;;;;;6.07;1.88;;;;;;;4.36;74.15;97482.50;2622674;54;20547;-71
2021/12/05 05:45:26;;;;;;;1.70;1.48;;;;;;;4.39;74.75;97493.41;2621129;39;20448;-69
2021/12/05 05:48:14;;;;;;;7.95;1.88;;;;;;;4.35;74.50;97492.16;2619221;39;20453;-70
2021/12/05 05:50:44;;;;;;;7.85;2.35;;;;;;;4.39;74.11;97498.66;2618561;54;20034;-69
2021/12/05 05:53:14;;;;;;;3.30;1.80;;;;;;;4.40;74.42;97491.59;2618682;54;20037;-71
2021/12/05 05:55:44;;;;;;;3.90;1.88;;;;;;;4.38;74.25;97501.47;2618921;54;20596;-71
2021/12/05 05:58:15;;;;;;;6.45;2.38;;;;;;;4.38;73.65;97502.28;2619145;39;20473;-70
2021/12/05 06:01:00;;;;;;;4.65;1.67;;;;;;;4.33;73.73;97498.59;2619781;39;20429;-71
2021/12/05 06:03:31;;;;;;;6.90;1.58;;;;;;;4.31;73.77;97488.28;2619476;54;20042;-71
2021/12/05 06:06:05;;;;;;;5.40;2.20;;;;;;;4.28;73.79;97482.63;2619610;39;20409;-70
2021/12/05 06:08:37;;;;;;;3.45;1.58;;;;;;;4.23;74.14;97491.03;2619449;54;20533;-71
2021/12/05 06:11:10;;;;;;;6.25;1.90;;;;;;;4.20;73.75;97487.00;2619311;54;20030;-71
2021/12/05 06:13:40;;;;;;;8.35;2.00;;;;;;;4.18;73.97;97491.56;2619125;54;20030;-69
2021/12/05 06:16:16;;;;;;;4.50;1.60;;;;;;;4.19;74.25;97485.34;2618719;54;20026;-69
2021/12/05 06:18:47;;;;;;;5.43;2.38;;;;;;;4.16;74.19;97490.13;2618415;54;20038;-69
2021/12/05 06:21:18;;;;;;;4.13;1.80;;;;;;;4.17;74.58;97487.34;2618434;54;20034;-69
2021/12/05 06:23:48;;;;;;;5.00;1.88;;;;;;;4.17;74.85;97497.00;2619414;54;20038;-70
2021/12/05 06:26:23;;;;;;;7.32;1.85;;;;;;;4.21;74.37;97495.66;2619280;54;20526;-70
2021/12/05 06:29:06;;;;;;;4.28;2.03;;;;;;;4.23;74.61;97494.44;2618626;54;20078;-70
2021/12/05 06:31:56;;;;;;;11.10;2.38;;;;;;;4.26;74.39;97498.50;2619264;54;20118;-71
2021/12/05 06:37:29;;;;;;;5.43;1.52;;;;;;;4.31;74.96;97505.81;2618278;54;20041;-72
2021/12/05 06:42:52;;;;;;;4.75;1.67;;;;;;;4.39;74.78;97519.59;2618701;54;20042;-70
2021/12/05 06:48:07;;;;;;;4.45;2.28;;;;;;;4.44;74.97;97524.25;2618913;39;20498;-71
2021/12/05 06:50:37;;;;;;;8.77;2.92;;;;;;;4.47;74.94;97527.31;2618703;39;20441;-72
2021/12/05 06:53:07;;;;;;;7.28;2.58;;;;;;;4.54;75.00;97529.22;2617560;54;20023;-71
2021/12/05 06:55:37;;;;;;;7.00;2.42;;;;;;;4.63;74.77;97528.09;2617765;46;20030;-71
2021/12/05 06:58:11;;;;;;;4.18;2.03;;;;;;;4.64;73.86;97524.47;2617911;47;20582;-71
2021/12/05 07:00:41;;;;;;;6.78;2.55;;;;;;;4.63;74.34;97520.25;2618354;54;20023;-70
2021/12/05 07:03:13;;;;;;;6.35;2.05;;;;;;;4.62;73.79;97529.91;2617934;54;20062;-71
2021/12/05 07:05:50;;;;;;;4.30;1.98;;;;;;;4.65;74.01;97523.47;2618824;54;20034;-71
2021/12/05 07:08:21;;;;;;;5.40;1.92;;;;;;;4.63;73.91;97534.13;2619112;54;20030;-70
2021/12/05 07:10:57;;;;;;;6.85;2.33;;;;;;;4.70;73.86;97528.97;2618564;54;20069;-70
2021/12/05 07:16:24;;;;;;;5.10;2.00;;;;;;;4.70;74.10;97531.59;2617369;54;20061;-71
2021/12/05 07:19:14;;;;;;;3.75;1.60;;;;;;;4.65;74.15;97532.16;2617603;39;20437;-70
2021/12/05 07:21:51;;;;;;;5.40;2.10;;;;;;;4.58;74.00;97546.97;2618388;54;20030;-69
2021/12/05 07:24:35;;;;;;;6.90;2.20;;;;;;;4.57;74.47;97541.91;2617868;54;20030;-70
2021/12/05 07:40:41;;;;;;;6.72;2.38;;;;;;;4.57;75.22;97540.13;2618501;54;20045;-69
2021/12/05 07:43:15;;;;;;;3.58;1.70;;;;;;;4.58;75.02;97540.94;2618225;54;20057;-70
2021/12/05 07:45:52;;;;;;;8.30;2.08;;;;;;;4.61;74.75;97545.78;2618094;54;20085;-70
2021/12/05 07:48:26;;;;;;;3.33;2.00;;;;;;;4.63;75.46;97549.03;2627244;54;20045;-70
2021/12/05 07:51:09;;;;;;;1.65;1.40;;;;;;;4.71;74.89;97552.34;2628345;54;20030;-72
2021/12/05 07:53:48;;;;;;;3.80;1.60;;;;;;;4.77;74.68;97549.97;2627153;47;20062;-71
2021/12/05 07:56:23;;;;;;;4.20;2.25;;;;;;;4.76;74.79;97551.78;2620230;54;20061;-71
2021/12/05 08:15:18;;;;;;;5.75;1.70;;;;;;;4.91;74.30;97564.84;2622056;47;20031;-72
2021/12/05 08:17:54;;;;;;;3.05;1.70;;;;;;;4.90;74.43;97566.66;2621855;51;20089;-70
2021/12/05 08:20:26;;;;;;;4.25;1.90;;;;;;;4.88;74.26;97575.66;2622418;54;20530;-71
2021/12/05 08:23:00;;;;;;;6.13;1.73;;;;;;;4.91;74.29;97578.72;2622839;54;20062;-71
2021/12/05 08:25:31;;;;;;;3.93;1.90;;;;;;;4.96;74.59;97572.94;2623350;54;20035;-70
2021/12/05 08:28:13;;;;;;;5.80;1.92;;;;;;;4.97;74.02;97567.50;2622861;54;20576;-72
2021/12/05 08:30:47;;;;;;;4.40;2.17;;;;;;;4.95;74.22;97585.22;2621903;54;20526;-71
2021/12/05 08:33:34;;;;;;;6.85;2.50;;;;;;;5.01;74.33;97580.22;2622481;54;20035;-70
2021/12/05 08:41:45;;;;;;;5.40;2.22;;;;;;;4.85;73.67;97589.94;2625468;54;20031;-71
2021/12/05 09:31:03;;;;;;;2.75;1.30;;;;;;;5.72;70.60;97599.38;2619398;47;20030;-70
2021/12/05 10:06:52;;;;;;;12.15;8.30;;;;;;;6.93;67.81;97611.09;2624135;54;20030;-72
2021/12/05 10:09:58;;;;;;;3.55;1.83;;;;;;;6.86;66.91;97609.47;2623588;54;20041;-74
2021/12/05 10:12:49;;;;;;;5.32;2.50;;;;;;;6.75;66.67;97596.91;2622148;47;20030;-73
2021/12/05 10:15:33;;;;;;;3.47;1.75;;;;;;;6.57;66.07;97603.53;2623026;39;20418;-72
2021/12/05 10:18:46;;;;;;;3.13;1.67;;;;;;;6.47;66.72;97602.25;2621128;54;20030;-71
2021/12/05 10:27:14;;;;;;;5.70;2.30;;;;;;;6.85;66.63;97603.38;2621432;54;20154;-69
2021/12/05 10:35:34;;;;;;;3.28;1.30;;;;;;;7.07;65.45;97603.25;2619057;54;19946;-71
2021/12/05 10:38:08;;;;;;;3.40;1.25;;;;;;;6.99;65.25;97600.81;2619707;54;20035;-71
2021/12/05 10:40:44;;;;;;;3.00;1.80;;;;;;;6.82;65.34;97595.94;2619791;54;20034;-71
2021/12/05 10:43:17;;;;;;;2.97;1.95;;;;;;;6.78;65.41;97604.41;2619706;54;20027;-70
2021/12/05 10:45:49;;;;;;;2.45;1.70;;;;;;;6.70;65.10;97600.94;2620317;46;20057;-72
2021/12/05 10:48:26;;;;;;;5.88;3.10;;;;;;;6.56;65.21;97606.31;2619763;54;20566;-70
2021/12/05 10:51:03;;;;;;;8.07;3.70;;;;;;;6.54;65.17;97610.97;2619640;54;20561;-71
2021/12/05 10:53:40;;;;;;;5.25;2.60;;;;;;;6.46;65.09;97606.69;2619462;54;20034;-73
2021/12/05 10:56:17;;;;;;;4.30;2.00;;;;;;;6.45;64.70;97608.53;2620343;54;20046;-73
2021/12/05 10:58:54;;;;;;;10.13;6.00;;;;;;;6.58;65.23;97610.38;2620531;54;20030;-71
2021/12/05 11:01:27;;;;;;;6.45;3.85;;;;;;;6.66;65.31;97604.97;2620210;54;20041;-70
2021/12/05 11:04:06;;;;;;;;;;;;;;;6.75;65.30;97604.78;2619095;51;20122;-71
2021/12/05 11:06:50;;;;;;;4.63;1.63;;;;;;;6.74;64.58;97605.81;2620352;47;20006;-73
2021/12/05 11:09:24;;;;;;;3.08;1.80;;;;;;;6.76;65.02;97598.53;2619367;54;20171;-71
2021/12/05 11:11:56;;;;;;;3.13;1.67;;;;;;;6.75;64.85;97602.97;2617946;54;20041;-72
2021/12/05 11:14:29;;;;;;;3.80;1.63;;;;;;;6.76;64.69;97603.78;2618313;54;20538;-72
2021/12/05 11:17:02;;;;;;;4.63;1.60;;;;;;;6.80;64.65;97595.31;2618408;54;20034;-72
2021/12/05 11:19:38;;;;;;;1.70;1.40;;;;;;;6.67;64.23;97588.19;2618513;54;20034;-73
2021/12/05 11:22:16;;;;;;;2.15;1.10;;;;;;;6.73;64.46;97591.03;2618143;54;20097;-70
2021/12/05 11:24:51;;;;;;;5.28;3.80;;;;;;;6.80;64.21;97586.63;2617374;47;20086;-72
2021/12/05 11:27:22;;;;;;;;;;;;;;;6.67;63.84;97588.19;2617944;54;20046;-70
2021/12/05 11:30:10;;;;;;;3.53;1.60;;;;;;;6.67;64.00;97590.00;2617620;47;19945;-71
2021/12/05 11:32:44;;;;;;;3.15;0.93;;;;;;;6.76;63.56;97588.00;2617704;54;20038;-71
2021/12/05 11:35:25;;;;;;;4.07;2.28;;;;;;;7.02;63.91;97589.88;2617914;54;20053;-72
2021/12/05 11:38:02;;;;;;;1.52;1.30;;;;;;;7.09;62.85;97595.97;2618602;47;20033;-71
2021/12/05 11:40:48;;;;;;;2.03;1.67;;;;;;;7.09;63.43;97593.34;2620468;54;20038;-73
2021/12/05 11:43:22;;;;;;;2.35;1.63;;;;;;;7.00;62.90;97576.97;2620022;54;20034;-72
2021/12/05 11:46:04;;;;;;;3.15;1.50;;;;;;;7.03;63.63;97583.66;2619137;54;20581;-71
2021/12/05 11:48:46;;;;;;;2.03;1.58;;;;;;;7.12;64.52;97577.19;2618761;54;20026;-73
2021/12/05 11:51:27;;;;;;;1.52;1.15;;;;;;;7.17;63.63;97562.41;2618967;54;20030;-72
2021/12/05 11:54:03;;;;;;;3.28;1.80;;;;;;;6.99;63.45;97574.53;2618569;54;20617;-71
2021/12/05 11:56:42;;;;;;;4.60;1.33;;;;;;;6.83;63.03;97566.03;2617688;51;20069;-70
2021/12/05 11:59:19;;;;;;;2.78;1.50;;;;;;;6.86;63.50;97570.06;2619027;54;20039;-71
2021/12/05 12:01:55;;;;;;;2.05;1.67;;;;;;;6.94;63.36;97569.88;2618566;54;20035;-71
2021/12/05 12:04:29;;;;;;;1.85;1.10;;;;;;;6.85;62.95;97566.59;2619023;54;20125;-71
